Time;durP1;ratioP1;P1;durP2;ratioP2;P2;SDS_P1;SDS_P2;PMS_P1;PMS_P2;Temp;Humidity;BMP_temperature;BMP_pressure;BME280_temperature;BME280_humidity;BME280_pressure;Samples;Min_cycle;Max_cycle;Signal;HPM_P1;HPM_P2
2021/03/14 00:00:44;;;;;;;;;;;2.40;99.90;;;;;;5089194;28;19915;-75
2021/03/14 00:03:10;;;;;;;;;;;2.40;99.90;;;;;;5091949;28;20380;-75
2021/03/14 00:05:40;;;;;;;;;;;2.50;99.90;;;;;;5088171;28;20288;-75
2021/03/14 00:08:07;;;;;;;;;;;2.60;99.90;;;;;;5087552;28;19908;-75
2021/03/14 00:10:32;;;;;;;;;;;2.60;99.90;;;;;;5091921;28;19947;-80
2021/03/14 00:12:58;;;;;;;;;;;2.70;99.90;;;;;;5092226;28;19985;-75
2021/03/14 00:15:23;;;;;;;;;;;2.70;99.90;;;;;;5092318;28;19912;-76
2021/03/14 00:17:49;;;;;;;;;;;2.80;99.90;;;;;;5091626;28;19952;-76
2021/03/14 00:20:15;;;;;;;;;;;2.80;99.90;;;;;;5092046;28;19908;-79
2021/03/14 00:22:40;;;;;;;;;;;2.90;99.90;;;;;;5090707;28;19948;-79
2021/03/14 00:25:08;;;;;;;;;;;2.90;99.90;;;;;;5091855;28;19915;-76
2021/03/14 00:27:33;;;;;;;;;;;2.90;99.90;;;;;;5091548;28;19948;-78
2021/03/14 00:29:59;;;;;;;;;;;2.90;99.90;;;;;;5091882;28;19916;-78
2021/03/14 00:32:24;;;;;;;;;;;2.90;99.90;;;;;;5090450;28;20276;-75
2021/03/14 00:34:50;;;;;;;;;;;2.90;99.90;;;;;;5090411;28;19916;-75
2021/03/14 00:37:15;;;;;;;;;;;2.90;99.90;;;;;;5081796;28;19908;-79
2021/03/14 00:39:41;;;;;;;;;;;2.90;99.90;;;;;;5079165;28;19912;-79
2021/03/14 00:42:07;;;;;;;;;;;2.90;99.90;;;;;;5091433;28;19912;-75
2021/03/14 00:44:32;;;;;;;;;;;3.00;99.90;;;;;;5091616;28;19974;-75
2021/03/14 00:46:58;;;;;;;;;;;2.90;99.90;;;;;;5089917;28;20348;-75
2021/03/14 00:49:23;;;;;;;;;;;2.70;99.90;;;;;;5091656;28;19977;-79
2021/03/14 00:51:49;;;;;;;;;;;2.50;99.90;;;;;;5091477;28;20003;-75
2021/03/14 00:54:15;;;;;;;;;;;2.30;99.90;;;;;;5091315;28;19923;-75
2021/03/14 00:56:40;;;;;;;;;;;2.20;99.90;;;;;;5089932;28;19908;-76
2021/03/14 00:59:06;;;;;;;;;;;2.10;99.90;;;;;;5091409;28;19908;-76
2021/03/14 01:01:31;;;;;;;;;;;2.00;99.90;;;;;;5088034;28;19966;-80
2021/03/14 01:03:57;;;;;;;;;;;1.90;99.90;;;;;;5088992;28;19908;-75
2021/03/14 01:06:23;;;;;;;;;;;1.90;99.90;;;;;;5089784;28;20276;-76
2021/03/14 01:08:51;;;;;;;;;;;1.80;99.90;;;;;;5089668;28;19908;-76
2021/03/14 01:11:17;;;;;;;;;;;1.90;99.90;;;;;;5090058;28;19931;-76
2021/03/14 01:13:42;;;;;;;;;;;1.90;99.90;;;;;;5091348;28;20353;-76
2021/03/14 01:16:08;;;;;;;;;;;1.90;99.90;;;;;;5091028;28;19908;-80
2021/03/14 01:18:33;;;;;;;;;;;1.90;99.90;;;;;;5089963;28;20357;-75
2021/03/14 01:20:59;;;;;;;;;;;1.90;99.90;;;;;;5091515;28;20367;-75
2021/03/14 01:23:24;;;;;;;;;;;2.00;99.90;;;;;;5090976;28;19938;-76
2021/03/14 01:25:51;;;;;;;;;;;2.00;99.90;;;;;;5090920;28;19915;-79
2021/03/14 01:28:16;;;;;;;;;;;2.00;99.90;;;;;;5091192;28;19914;-78
2021/03/14 01:30:42;;;;;;;;;;;2.10;99.90;;;;;;5089787;28;19908;-75
2021/03/14 01:33:07;;;;;;;;;;;2.10;99.90;;;;;;5089837;28;19912;-76
2021/03/14 01:35:33;;;;;;;;;;;2.10;99.90;;;;;;5087352;28;19916;-76
2021/03/14 01:37:58;;;;;;;;;;;2.10;99.90;;;;;;5091062;28;19908;-78
2021/03/14 01:40:24;;;;;;;;;;;2.10;99.90;;;;;;5111116;28;19912;-75
2021/03/14 01:42:49;;;;;;;;;;;2.10;99.90;;;;;;5111352;28;19930;-75
2021/03/14 01:45:16;;;;;;;;;;;2.10;99.90;;;;;;5111253;28;19907;-76
2021/03/14 01:47:42;;;;;;;;;;;2.10;99.90;;;;;;5109649;28;20288;-76
2021/03/14 01:50:09;;;;;;;;;;;2.10;99.90;;;;;;5111357;28;19908;-75
2021/03/14 01:52:34;;;;;;;;;;;2.10;99.90;;;;;;5109817;28;19934;-75
2021/03/14 01:55:01;;;;;;;;;;;2.10;99.90;;;;;;5111217;28;20435;-75
2021/03/14 01:57:27;;;;;;;;;;;2.10;99.90;;;;;;5110916;28;19908;-75
2021/03/14 01:59:52;;;;;;;;;;;2.10;99.90;;;;;;5111150;28;19908;-75
2021/03/14 02:02:18;;;;;;;;;;;2.10;99.90;;;;;;5110980;28;19915;-75
2021/03/14 02:04:43;;;;;;;;;;;2.20;99.90;;;;;;5109866;28;20279;-76
2021/03/14 02:07:09;;;;;;;;;;;2.20;99.90;;;;;;5094570;28;19908;-78
2021/03/14 02:09:35;;;;;;;;;;;2.20;99.90;;;;;;5090539;28;19919;-75
2021/03/14 02:12:02;;;;;;;;;;;2.20;99.90;;;;;;5090693;28;20323;-75
2021/03/14 02:14:28;;;;;;;;;;;2.20;99.90;;;;;;5090607;28;20010;-78
2021/03/14 02:16:54;;;;;;;;;;;2.20;99.90;;;;;;5093610;28;19947;-78
2021/03/14 02:19:26;;;;;;;;;;;2.20;99.90;;;;;;5094782;28;19908;-76
2021/03/14 02:21:51;;;;;;;;;;;2.20;99.90;;;;;;5092946;28;20007;-79
2021/03/14 02:24:21;;;;;;;;;;;2.20;99.90;;;;;;5093000;28;20012;-75
2021/03/14 02:26:55;;;;;;;;;;;2.20;99.90;;;;;;5092641;28;19908;-76
2021/03/14 02:29:21;;;;;;;;;;;2.10;99.90;;;;;;5093996;28;19915;-75
2021/03/14 02:31:49;;;;;;;;;;;2.10;99.90;;;;;;5094082;28;19908;-75
2021/03/14 02:34:16;;;;;;;;;;;2.10;99.90;;;;;;5092527;28;19916;-76
2021/03/14 02:36:43;;;;;;;;;;;2.10;99.90;;;;;;5084243;28;19912;-79
2021/03/14 02:39:11;;;;;;;;;;;2.10;99.90;;;;;;5085401;28;19954;-75
2021/03/14 02:41:36;;;;;;;;;;;2.10;99.90;;;;;;5093203;28;20273;-76
2021/03/14 02:44:02;;;;;;;;;;;2.10;99.90;;;;;;5093717;28;19908;-78
2021/03/14 02:46:28;;;;;;;;;;;2.10;99.90;;;;;;5093499;28;19943;-75
2021/03/14 02:48:54;;;;;;;;;;;2.00;99.90;;;;;;5092340;28;19934;-76
2021/03/14 02:51:20;;;;;;;;;;;2.00;99.90;;;;;;5091378;28;19938;-75
2021/03/14 02:53:45;;;;;;;;;;;2.00;99.90;;;;;;5093696;28;19912;-76
2021/03/14 02:56:11;;;;;;;;;;;2.00;99.90;;;;;;5092249;28;19908;-76
2021/03/14 02:58:37;;;;;;;;;;;2.00;99.90;;;;;;5093749;28;19955;-76
2021/03/14 03:01:03;;;;;;;;;;;2.00;99.90;;;;;;5093600;28;19943;-78
2021/03/14 03:03:29;;;;;;;;;;;2.00;99.90;;;;;;5080880;28;19913;-76
2021/03/14 03:05:58;;;;;;;;;;;2.00;99.90;;;;;;5087590;28;19942;-78
2021/03/14 03:08:26;;;;;;;;;;;2.00;99.90;;;;;;5091044;28;20396;-76
2021/03/14 03:10:52;;;;;;;;;;;2.00;99.90;;;;;;5093511;28;19941;-76
2021/03/14 03:13:18;;;;;;;;;;;2.00;99.90;;;;;;5091857;28;20011;-75
2021/03/14 03:15:44;;;;;;;;;;;2.00;99.90;;;;;;5080995;28;19949;-76
2021/03/14 03:18:10;;;;;;;;;;;2.00;99.90;;;;;;5090754;28;19953;-76
2021/03/14 03:20:35;;;;;;;;;;;2.00;99.90;;;;;;5093068;28;19947;-76
2021/03/14 03:23:01;;;;;;;;;;;2.00;99.90;;;;;;5093250;28;20381;-78
2021/03/14 03:25:27;;;;;;;;;;;2.00;99.90;;;;;;5091937;28;20264;-78
2021/03/14 03:27:53;;;;;;;;;;;2.00;99.90;;;;;;5090513;28;20280;-75
2021/03/14 03:30:20;;;;;;;;;;;2.00;99.90;;;;;;5092904;28;19908;-75
2021/03/14 03:32:46;;;;;;;;;;;2.00;99.90;;;;;;5092675;28;19915;-76
2021/03/14 03:35:13;;;;;;;;;;;2.00;99.90;;;;;;5092910;28;20007;-75
2021/03/14 03:37:39;;;;;;;;;;;2.10;99.90;;;;;;5082918;28;19978;-75
2021/03/14 03:40:06;;;;;;;;;;;2.10;99.90;;;;;;5092814;28;19916;-76
2021/03/14 03:42:33;;;;;;;;;;;2.10;99.90;;;;;;5092621;28;19908;-79
2021/03/14 03:44:59;;;;;;;;;;;2.10;99.90;;;;;;5092671;28;19908;-75
2021/03/14 03:47:24;;;;;;;;;;;2.10;99.90;;;;;;5091037;28;19912;-75
2021/03/14 03:49:52;;;;;;;;;;;2.10;99.90;;;;;;5092727;28;20388;-75
2021/03/14 03:52:19;;;;;;;;;;;2.10;99.90;;;;;;5091199;28;19908;-76
2021/03/14 03:54:46;;;;;;;;;;;2.10;99.90;;;;;;5091329;28;19916;-76
2021/03/14 03:57:12;;;;;;;;;;;2.10;99.90;;;;;;5090735;28;19908;-75
2021/03/14 03:59:37;;;;;;;;;;;2.00;99.90;;;;;;5092279;28;19909;-75
2021/03/14 04:02:03;;;;;;;;;;;2.10;99.90;;;;;;5092388;28;20361;-75
2021/03/14 04:04:28;;;;;;;;;;;2.10;99.90;;;;;;5092348;28;19911;-76
2021/03/14 04:06:55;;;;;;;;;;;2.00;99.90;;;;;;5082548;28;20284;-76
2021/03/14 04:09:22;;;;;;;;;;;2.00;99.90;;;;;;5092009;28;19915;-75
2021/03/14 04:11:47;;;;;;;;;;;1.90;99.90;;;;;;5092097;28;19908;-75
2021/03/14 04:14:13;;;;;;;;;;;1.90;99.90;;;;;;5091852;28;20276;-74
2021/03/14 04:16:39;;;;;;;;;;;1.80;99.90;;;;;;5091667;28;20284;-75
2021/03/14 04:19:08;;;;;;;;;;;1.70;99.90;;;;;;5092053;28;19919;-75
2021/03/14 04:21:34;;;;;;;;;;;1.70;99.90;;;;;;5091992;28;19908;-74
2021/03/14 04:24:01;;;;;;;;;;;1.70;99.90;;;;;;5090807;28;20322;-76
2021/03/14 04:26:27;;;;;;;;;;;1.70;99.90;;;;;;5091565;28;19909;-74
2021/03/14 04:28:53;;;;;;;;;;;1.70;99.90;;;;;;5091728;28;20411;-77
2021/03/14 04:31:19;;;;;;;;;;;1.70;99.90;;;;;;5092031;28;19961;-74
2021/03/14 04:33:45;;;;;;;;;;;1.70;99.90;;;;;;5090584;28;20430;-74
2021/03/14 04:36:11;;;;;;;;;;;1.70;99.90;;;;;;5082533;28;19916;-77
2021/03/14 04:38:38;;;;;;;;;;;1.70;99.90;;;;;;5086902;28;20001;-77
2021/03/14 04:41:03;;;;;;;;;;;1.80;99.90;;;;;;5091264;28;19908;-74
2021/03/14 04:43:29;;;;;;;;;;;1.80;99.90;;;;;;5091344;28;19999;-74
2021/03/14 04:45:55;;;;;;;;;;;1.80;99.90;;;;;;5091384;28;19908;-75
2021/03/14 04:48:21;;;;;;;;;;;1.70;99.90;;;;;;5090517;28;20011;-74
2021/03/14 04:50:48;;;;;;;;;;;1.70;99.90;;;;;;5091147;28;20408;-74
2021/03/14 04:53:14;;;;;;;;;;;1.60;99.90;;;;;;5090133;28;20364;-73
2021/03/14 04:55:40;;;;;;;;;;;1.60;99.90;;;;;;5091073;28;19953;-77
2021/03/14 04:58:06;;;;;;;;;;;1.50;99.90;;;;;;5091208;28;19916;-74
2021/03/14 05:00:32;;;;;;;;;;;1.50;99.90;;;;;;5091584;28;20305;-73
2021/03/14 05:02:58;;;;;;;;;;;1.40;99.90;;;;;;5085748;28;19909;-74
2021/03/14 05:05:24;;;;;;;;;;;1.40;99.90;;;;;;5081420;28;19912;-73
2021/03/14 05:07:50;;;;;;;;;;;1.40;99.90;;;;;;5089075;28;20399;-73
2021/03/14 05:10:17;;;;;;;;;;;1.40;99.90;;;;;;5111468;28;19907;-75
2021/03/14 05:12:42;;;;;;;;;;;1.30;99.90;;;;;;5111959;28;19915;-72
2021/03/14 05:15:10;;;;;;;;;;;1.30;99.90;;;;;;5110870;28;19912;-72
2021/03/14 05:17:36;;;;;;;;;;;1.30;99.90;;;;;;5109970;28;19908;-74
2021/03/14 05:20:03;;;;;;;;;;;1.30;99.90;;;;;;5111707;28;19996;-72
2021/03/14 05:22:28;;;;;;;;;;;1.30;99.90;;;;;;5110188;28;19919;-72
2021/03/14 05:24:54;;;;;;;;;;;1.30;99.90;;;;;;5111451;28;20353;-72
2021/03/14 05:27:20;;;;;;;;;;;1.30;99.90;;;;;;5111108;28;19911;-74
2021/03/14 05:29:46;;;;;;;;;;;1.30;99.90;;;;;;5111518;28;20003;-73
2021/03/14 05:32:12;;;;;;;;;;;1.30;99.90;;;;;;5111495;28;19908;-72
2021/03/14 05:34:37;;;;;;;;;;;1.30;99.90;;;;;;5111339;28;19919;-73
2021/03/14 05:37:03;;;;;;;;;;;1.30;99.90;;;;;;5103034;28;19908;-72
2021/03/14 05:39:28;;;;;;;;;;;1.30;99.90;;;;;;5102654;28;19947;-73
2021/03/14 05:41:54;;;;;;;;;;;1.40;99.90;;;;;;5111180;28;19916;-74
2021/03/14 05:44:20;;;;;;;;;;;1.40;99.90;;;;;;5111371;28;19955;-72
2021/03/14 05:46:45;;;;;;;;;;;1.40;99.90;;;;;;5111074;28;19954;-72
2021/03/14 05:49:11;;;;;;;;;;;1.40;99.90;;;;;;5111429;28;19934;-72
2021/03/14 05:51:41;;;;;;;;;;;1.40;99.90;;;;;;5114305;28;19908;-72
2021/03/14 05:54:08;;;;;;;;;;;1.40;99.90;;;;;;5109884;28;20438;-74
2021/03/14 05:56:35;;;;;;;;;;;1.40;99.90;;;;;;5089469;28;19973;-72
2021/03/14 05:59:01;;;;;;;;;;;1.40;99.90;;;;;;5094919;28;19931;-73
2021/03/14 06:01:28;;;;;;;;;;;1.40;99.90;;;;;;5093634;28;20357;-73
2021/03/14 06:03:54;;;;;;;;;;;1.40;99.90;;;;;;5094981;28;19908;-72
2021/03/14 06:06:20;;;;;;;;;;;1.40;99.90;;;;;;5094416;28;19933;-73
2021/03/14 06:08:45;;;;;;;;;;;1.40;99.90;;;;;;5107240;28;19987;-73
2021/03/14 06:11:11;;;;;;;;;;;1.40;99.90;;;;;;5115138;28;20428;-73
2021/03/14 06:13:37;;;;;;;;;;;1.40;99.90;;;;;;5115043;28;19934;-74
2021/03/14 06:16:02;;;;;;;;;;;1.40;99.90;;;;;;5114947;28;20422;-73
2021/03/14 06:18:28;;;;;;;;;;;1.30;99.90;;;;;;5115059;28;19908;-73
2021/03/14 06:20:54;;;;;;;;;;;1.30;99.90;;;;;;5115105;28;19935;-73
2021/03/14 06:23:20;;;;;;;;;;;1.40;99.90;;;;;;5113435;28;19961;-73
2021/03/14 06:25:53;;;;;;;;;;;1.40;99.90;;;;;;5114692;28;19908;-73
2021/03/14 06:28:48;;;;;;;;;;;1.40;99.90;;;;;;5114878;28;20262;-73
2021/03/14 06:31:21;;;;;;;;;;;1.40;99.90;;;;;;5109763;28;19914;-72
2021/03/14 06:33:46;;;;;;;;;;;1.40;99.90;;;;;;5114412;28;20348;-73
2021/03/14 06:36:19;;;;;;;;;;;1.40;99.90;;;;;;5106730;28;20003;-73
2021/03/14 06:38:45;;;;;;;;;;;1.50;99.90;;;;;;5091824;28;20016;-73
2021/03/14 06:41:10;;;;;;;;;;;1.50;99.90;;;;;;5093760;28;20383;-73
2021/03/14 06:43:40;;;;;;;;;;;1.50;99.90;;;;;;5093973;28;20323;-73
2021/03/14 06:46:24;;;;;;;;;;;1.50;99.90;;;;;;5092470;28;19915;-73
2021/03/14 06:49:10;;;;;;;;;;;1.60;99.90;;;;;;5094044;28;20261;-73
2021/03/14 06:51:37;;;;;;;;;;;1.60;99.90;;;;;;5092569;28;19946;-74
2021/03/14 06:54:23;;;;;;;;;;;1.60;99.90;;;;;;5092531;28;19912;-73
2021/03/14 06:57:03;;;;;;;;;;;1.60;99.90;;;;;;5092176;28;19908;-73
2021/03/14 06:59:29;;;;;;;;;;;1.70;99.90;;;;;;5093897;28;19912;-72
2021/03/14 07:01:59;;;;;;;;;;;1.70;99.90;;;;;;5090172;28;20377;-73
2021/03/14 07:04:35;;;;;;;;;;;1.80;99.90;;;;;;5081263;28;20377;-74
2021/03/14 07:07:00;;;;;;;;;;;1.80;99.90;;;;;;5091650;28;19908;-74
2021/03/14 07:09:26;;;;;;;;;;;1.80;99.90;;;;;;5093337;28;19934;-74
2021/03/14 07:11:52;;;;;;;;;;;1.90;99.90;;;;;;5093506;28;19943;-73
2021/03/14 07:14:19;;;;;;;;;;;1.90;99.90;;;;;;5093471;28;19999;-73
2021/03/14 07:16:46;;;;;;;;;;;2.00;99.90;;;;;;5093120;28;20369;-75
2021/03/14 07:19:15;;;;;;;;;;;2.00;99.90;;;;;;5093497;28;19930;-74
2021/03/14 07:21:41;;;;;;;;;;;2.00;99.90;;;;;;5093148;28;19933;-73
2021/03/14 07:24:11;;;;;;;;;;;2.10;99.90;;;;;;5093455;28;19912;-73
2021/03/14 07:26:46;;;;;;;;;;;2.10;99.90;;;;;;5091650;28;20331;-77
2021/03/14 07:29:12;;;;;;;;;;;2.20;99.90;;;;;;5093490;28;19983;-73
2021/03/14 07:31:38;;;;;;;;;;;2.30;99.90;;;;;;5093181;28;19908;-74
2021/03/14 07:34:04;;;;;;;;;;;2.40;99.90;;;;;;5092866;28;19912;-74
2021/03/14 07:36:30;;;;;;;;;;;2.60;99.90;;;;;;5084460;28;19916;-74
2021/03/14 07:38:56;;;;;;;;;;;2.70;99.90;;;;;;5092914;28;19915;-74
2021/03/14 07:41:22;;;;;;;;;;;2.90;99.90;;;;;;5092999;28;19955;-73
2021/03/14 07:43:47;;;;;;;;;;;3.00;99.90;;;;;;5091492;28;19908;-74
2021/03/14 07:46:14;;;;;;;;;;;3.00;99.90;;;;;;5092703;28;19915;-75
2021/03/14 07:48:40;;;;;;;;;;;3.10;99.90;;;;;;5092478;28;19931;-74
2021/03/14 07:51:07;;;;;;;;;;;3.00;99.90;;;;;;5092695;28;19915;-74
2021/03/14 07:53:32;;;;;;;;;;;2.90;99.90;;;;;;5091334;28;19912;-74
2021/03/14 07:55:59;;;;;;;;;;;2.80;99.90;;;;;;5092402;28;20394;-74
2021/03/14 07:58:24;;;;;;;;;;;2.70;99.90;;;;;;5091383;28;19908;-74
2021/03/14 08:00:50;;;;;;;;;;;2.70;99.90;;;;;;5092644;28;19912;-74
2021/03/14 08:03:16;;;;;;;;;;;2.70;99.90;;;;;;5091207;28;19908;-74
2021/03/14 08:05:41;;;;;;;;;;;2.60;99.90;;;;;;5088999;28;19912;-77
2021/03/14 08:08:10;;;;;;;;;;;2.60;99.90;;;;;;5087894;28;19970;-74
2021/03/14 08:10:42;;;;;;;;;;;2.60;99.90;;;;;;5092261;28;19908;-75
2021/03/14 08:13:28;;;;;;;;;;;2.80;99.90;;;;;;5092118;28;19961;-75
2021/03/14 08:16:00;;;;;;;;;;;3.20;99.90;;;;;;5077417;28;19913;-79
2021/03/14 08:18:46;;;;;;;;;;;3.60;99.90;;;;;;5083013;28;19931;-75
2021/03/14 08:21:20;;;;;;;;;;;4.40;99.90;;;;;;5090718;28;19937;-75
2021/03/14 08:23:47;;;;;;;;;;;5.20;99.90;;;;;;5090438;28;19912;-75
2021/03/14 08:26:16;;;;;;;;;;;5.70;99.90;;;;;;5091094;28;20002;-75
2021/03/14 08:28:51;;;;;;;;;;;6.10;99.90;;;;;;5090262;28;19919;-75
2021/03/14 08:31:35;;;;;;;;;;;6.40;99.90;;;;;;5091479;28;19912;-75
2021/03/14 08:34:00;;;;;;;;;;;6.40;99.90;;;;;;5091769;28;19959;-77
2021/03/14 08:36:37;;;;;;;;;;;6.20;99.90;;;;;;5090550;28;19962;-78
2021/03/14 08:39:04;;;;;;;;;;;6.10;99.90;;;;;;5084652;28;19912;-75
2021/03/14 08:41:36;;;;;;;;;;;6.10;99.90;;;;;;5076083;28;19962;-75
2021/03/14 08:44:03;;;;;;;;;;;6.10;99.90;;;;;;5090412;28;20426;-75
2021/03/14 08:46:47;;;;;;;;;;;6.00;99.90;;;;;;5090158;28;19908;-77
2021/03/14 08:49:13;;;;;;;;;;;5.70;99.90;;;;;;5091844;28;19908;-76
2021/03/14 08:51:39;;;;;;;;;;;5.50;99.90;;;;;;5091589;28;20486;-77
2021/03/14 08:54:05;;;;;;;;;;;5.50;99.90;;;;;;5091685;28;19975;-77
2021/03/14 08:56:30;;;;;;;;;;;5.60;99.90;;;;;;5091436;28;19912;-78
2021/03/14 08:59:08;;;;;;;;;;;5.70;99.90;;;;;;5091567;28;20045;-75
2021/03/14 09:01:34;;;;;;;;;;;5.70;99.90;;;;;;5090473;28;19908;-77
2021/03/14 09:04:12;;;;;;;;;;;5.60;99.90;;;;;;5082824;28;20427;-76
2021/03/14 09:06:38;;;;;;;;;;;5.40;99.90;;;;;;5083000;28;19993;-76
2021/03/14 09:09:04;;;;;;;;;;;5.30;99.90;;;;;;5097520;28;19916;-75
2021/03/14 09:11:34;;;;;;;;;;;5.30;99.90;;;;;;5102232;28;19912;-75
2021/03/14 09:13:59;;;;;;;;;;;5.30;99.90;;;;;;5087825;28;19920;-76
2021/03/14 09:16:44;;;;;;;;;;;5.30;99.90;;;;;;5077377;28;19912;-75
2021/03/14 09:19:09;;;;;;;;;;;5.30;99.90;;;;;;5091070;28;19908;-77
2021/03/14 09:21:51;;;;;;;;;;;5.30;99.90;;;;;;5090120;28;19912;-75
2021/03/14 09:24:23;;;;;;;;;;;5.20;99.90;;;;;;5098987;28;19961;-75
2021/03/14 09:26:52;;;;;;;;;;;5.00;99.90;;;;;;5094185;28;20319;-75
2021/03/14 09:29:31;;;;;;;;;;;4.80;99.90;;;;;;5094597;28;20310;-75
2021/03/14 09:31:56;;;;;;;;;;;4.70;99.90;;;;;;5094318;28;19947;-75
2021/03/14 09:34:22;;;;;;;;;;;4.70;99.90;;;;;;5095238;28;20349;-76
2021/03/14 09:36:49;;;;;;;;;;;4.70;99.90;;;;;;5093726;28;19953;-75
2021/03/14 09:39:20;;;;;;;;;;;4.70;99.90;;;;;;5095232;28;19961;-75
2021/03/14 09:41:45;;;;;;;;;;;4.70;99.90;;;;;;5095260;28;19912;-81
2021/03/14 09:44:15;;;;;;;;;;;4.70;99.90;;;;;;5095284;28;19987;-75
2021/03/14 09:46:51;;;;;;;;;;;4.80;99.90;;;;;;5095196;28;19908;-75
2021/03/14 09:49:16;;;;;;;;;;;4.80;99.90;;;;;;5093785;28;19908;-75
2021/03/14 09:51:42;;;;;;;;;;;4.80;99.90;;;;;;5093563;28;19909;-78
2021/03/14 09:54:10;;;;;;;;;;;4.80;99.90;;;;;;5088009;28;20009;-75
2021/03/14 09:56:36;;;;;;;;;;;5.20;99.90;;;;;;5092707;28;19946;-79
2021/03/14 09:59:04;;;;;;;;;;;6.00;99.90;;;;;;5093686;28;19908;-75
2021/03/14 10:01:30;;;;;;;;;;;6.90;99.90;;;;;;5089535;28;19912;-81
2021/03/14 10:03:59;;;;;;;;;;;7.90;99.90;;;;;;5088574;28;19912;-76
2021/03/14 10:06:24;;;;;;;;;;;8.80;99.90;;;;;;5089855;28;20342;-77
2021/03/14 10:08:50;;;;;;;;;;;9.50;99.90;;;;;;5093841;28;19908;-75
2021/03/14 10:11:16;;;;;;;;;;;9.80;99.90;;;;;;5094763;28;19934;-75
2021/03/14 10:13:46;;;;;;;;;;;9.90;99.90;;;;;;5094949;28;19912;-75
2021/03/14 10:16:16;;;;;;;;;;;10.10;99.90;;;;;;5094414;28;20139;-75
2021/03/14 10:18:43;;;;;;;;;;;10.30;99.90;;;;;;5093157;28;19908;-75
2021/03/14 10:21:14;;;;;;;;;;;10.50;99.90;;;;;;5094498;28;20348;-79
2021/03/14 10:23:40;;;;;;;;;;;10.60;99.90;;;;;;5092661;28;20132;-75
2021/03/14 10:26:09;;;;;;;;;;;10.40;99.90;;;;;;5089225;28;19948;-75
2021/03/14 10:28:44;;;;;;;;;;;10.00;99.90;;;;;;5094273;28;20391;-75
2021/03/14 10:31:10;;;;;;;;;;;9.50;99.90;;;;;;5094221;28;19937;-76
2021/03/14 10:33:36;;;;;;;;;;;9.30;99.90;;;;;;5094130;28;20280;-75
2021/03/14 10:36:04;;;;;;;;;;;8.80;99.90;;;;;;5093482;28;19985;-76
2021/03/14 10:38:37;;;;;;;;;;;8.50;99.90;;;;;;5092324;28;20344;-79
2021/03/14 10:41:08;;;;;;;;;;;8.00;99.90;;;;;;5081934;28;19958;-75
2021/03/14 10:43:42;;;;;;;;;;;7.50;99.90;;;;;;5093175;28;20384;-75
2021/03/14 10:46:08;;;;;;;;;;;7.10;99.90;;;;;;5093657;28;19915;-75
2021/03/14 10:48:33;;;;;;;;;;;6.70;99.90;;;;;;5090849;28;19920;-77
2021/03/14 10:51:03;;;;;;;;;;;6.60;99.90;;;;;;5092422;28;20363;-75
2021/03/14 10:53:29;;;;;;;;;;;6.50;99.90;;;;;;5093749;28;19913;-75
2021/03/14 10:56:21;;;;;;;;;;;6.50;99.90;;;;;;5096347;28;19968;-75
2021/03/14 10:58:46;;;;;;;;;;;6.70;99.90;;;;;;5092637;28;19915;-76
2021/03/14 11:01:16;;;;;;;;;;;6.80;99.90;;;;;;5091232;28;19912;-75
2021/03/14 11:03:42;;;;;;;;;;;7.00;99.90;;;;;;5075087;28;20433;-79
2021/03/14 11:06:08;;;;;;;;;;;7.20;99.90;;;;;;5079867;28;19999;-76
2021/03/14 11:08:50;;;;;;;;;;;7.10;99.90;;;;;;5092046;28;20018;-78
2021/03/14 11:11:16;;;;;;;;;;;7.20;99.90;;;;;;5093493;28;19908;-77
2021/03/14 11:13:42;;;;;;;;;;;7.50;99.90;;;;;;5092175;28;19912;-78
2021/03/14 11:16:08;;;;;;;;;;;7.60;99.90;;;;;;5093093;28;19912;-75
2021/03/14 11:18:34;;;;;;;;;;;7.80;99.90;;;;;;5093497;28;19908;-79
2021/03/14 11:21:02;;;;;;;;;;;8.00;99.90;;;;;;5092069;28;20301;-75
2021/03/14 11:23:27;;;;;;;;;;;8.00;99.90;;;;;;5091972;28;19944;-75
2021/03/14 11:25:53;;;;;;;;;;;8.10;99.90;;;;;;5087769;28;20002;-75
2021/03/14 11:28:18;;;;;;;;;;;8.10;99.90;;;;;;5091719;28;20391;-75
2021/03/14 11:30:44;;;;;;;;;;;8.10;99.90;;;;;;5092994;28;20383;-80
2021/03/14 11:33:10;;;;;;;;;;;8.30;99.90;;;;;;5091650;28;19919;-81
2021/03/14 11:35:36;;;;;;;;;;;8.40;99.90;;;;;;5092836;28;19916;-75
2021/03/14 11:38:01;;;;;;;;;;;8.20;99.60;;;;;;5093136;28;20346;-75
2021/03/14 11:40:27;;;;;;;;;;;7.90;99.90;;;;;;5093086;28;19947;-75
2021/03/14 11:42:52;;;;;;;;;;;7.80;99.90;;;;;;5091726;28;19908;-80
2021/03/14 11:45:18;;;;;;;;;;;7.60;99.90;;;;;;5091629;28;20361;-78
2021/03/14 11:47:44;;;;;;;;;;;7.40;99.90;;;;;;5091969;28;19933;-75
2021/03/14 11:50:10;;;;;;;;;;;7.40;99.90;;;;;;5092684;28;19915;-75
2021/03/14 11:52:35;;;;;;;;;;;7.20;99.90;;;;;;5092435;28;20339;-75
2021/03/14 11:55:01;;;;;;;;;;;7.00;99.90;;;;;;5087046;28;19916;-78
2021/03/14 11:57:26;;;;;;;;;;;7.00;99.90;;;;;;5110653;28;19914;-75
2021/03/14 11:59:51;;;;;;;;;;;6.90;99.90;;;;;;5113222;28;20376;-75
2021/03/14 12:02:17;;;;;;;;;;;6.90;99.90;;;;;;5112859;28;19908;-76
2021/03/14 12:04:42;;;;;;;;;;;6.80;99.90;;;;;;5111697;28;19955;-73
2021/03/14 12:07:08;;;;;;;;;;;6.60;99.90;;;;;;5111077;28;19935;-74
2021/03/14 12:09:34;;;;;;;;;;;6.50;99.90;;;;;;5111509;28;19912;-74
2021/03/14 12:12:01;;;;;;;;;;;6.50;99.90;;;;;;5112608;28;19908;-74
2021/03/14 12:14:27;;;;;;;;;;;6.40;99.90;;;;;;5112536;28;19919;-77
2021/03/14 12:16:52;;;;;;;;;;;6.30;99.90;;;;;;5112252;28;19908;-75
2021/03/14 12:19:18;;;;;;;;;;;6.00;99.90;;;;;;5112526;28;20356;-75
2021/03/14 12:21:43;;;;;;;;;;;5.70;99.90;;;;;;5112374;28;19966;-77
2021/03/14 12:24:09;;;;;;;;;;;5.40;99.90;;;;;;5108001;28;19909;-75
2021/03/14 12:26:34;;;;;;;;;;;5.10;99.90;;;;;;5091467;28;19912;-75
2021/03/14 12:29:01;;;;;;;;;;;4.90;99.90;;;;;;5090712;28;19908;-75
2021/03/14 12:31:27;;;;;;;;;;;4.80;99.90;;;;;;5091966;28;19912;-74
2021/03/14 12:33:52;;;;;;;;;;;4.60;99.90;;;;;;5091959;28;19965;-75
2021/03/14 12:36:18;;;;;;;;;;;4.40;99.90;;;;;;5091749;28;19920;-77
2021/03/14 12:38:43;;;;;;;;;;;4.20;99.90;;;;;;5090742;28;20007;-77
2021/03/14 12:41:09;;;;;;;;;;;4.20;99.90;;;;;;5088860;28;19908;-75
2021/03/14 12:43:35;;;;;;;;;;;4.20;99.90;;;;;;5090293;28;19995;-75
2021/03/14 12:46:01;;;;;;;;;;;4.20;99.90;;;;;;5091397;28;19912;-75
2021/03/14 12:48:26;;;;;;;;;;;4.30;99.90;;;;;;5091721;28;19908;-76
2021/03/14 12:50:52;;;;;;;;;;;4.30;99.90;;;;;;5091545;28;19915;-80
2021/03/14 12:53:17;;;;;;;;;;;4.40;99.90;;;;;;5091519;28;19908;-75
2021/03/14 12:55:43;;;;;;;;;;;4.40;99.90;;;;;;5089772;28;19916;-76
2021/03/14 12:58:08;;;;;;;;;;;4.50;99.90;;;;;;5091428;28;20011;-78
2021/03/14 13:00:34;;;;;;;;;;;4.60;99.90;;;;;;5090082;28;20330;-75
2021/03/14 13:02:59;;;;;;;;;;;4.60;99.90;;;;;;5085281;28;19920;-75
2021/03/14 13:05:25;;;;;;;;;;;4.70;99.90;;;;;;5075557;28;19912;-76
2021/03/14 13:07:53;;;;;;;;;;;4.60;99.90;;;;;;5091301;28;19939;-75
2021/03/14 13:10:19;;;;;;;;;;;4.70;99.90;;;;;;5091544;28;19908;-75
2021/03/14 13:12:45;;;;;;;;;;;4.90;99.90;;;;;;5091401;28;19935;-76
2021/03/14 13:15:10;;;;;;;;;;;5.00;99.90;;;;;;5091263;28;20304;-75
2021/03/14 13:17:36;;;;;;;;;;;5.20;99.90;;;;;;5089785;28;19909;-75
2021/03/14 13:20:03;;;;;;;;;;;5.30;99.90;;;;;;5091234;28;19908;-75
2021/03/14 13:22:28;;;;;;;;;;;5.40;99.90;;;;;;5091169;28;19961;-78
2021/03/14 13:24:54;;;;;;;;;;;5.50;99.90;;;;;;5091506;28;20115;-75
2021/03/14 13:27:19;;;;;;;;;;;5.70;99.90;;;;;;5111303;28;20343;-76
2021/03/14 13:29:46;;;;;;;;;;;5.80;99.90;;;;;;5111499;28;19912;-79
2021/03/14 13:32:12;;;;;;;;;;;6.00;99.90;;;;;;5110211;28;19907;-76
2021/03/14 13:34:38;;;;;;;;;;;6.10;99.90;;;;;;5111234;28;19922;-75
2021/03/14 13:37:04;;;;;;;;;;;6.20;99.90;;;;;;5111119;28;19912;-79
2021/03/14 13:39:29;;;;;;;;;;;6.40;99.90;;;;;;5111435;28;19961;-76
2021/03/14 13:41:55;;;;;;;;;;;6.50;99.90;;;;;;5110059;28;19915;-78
2021/03/14 13:44:20;;;;;;;;;;;6.60;99.90;;;;;;5111333;28;19908;-75
2021/03/14 13:46:46;;;;;;;;;;;6.70;99.90;;;;;;5111095;28;19947;-76
2021/03/14 13:49:11;;;;;;;;;;;6.80;99.90;;;;;;5109853;28;19915;-79
2021/03/14 13:51:37;;;;;;;;;;;6.80;99.90;;;;;;5111398;28;19950;-75
2021/03/14 13:54:02;;;;;;;;;;;6.80;99.90;;;;;;5107561;28;20266;-75
2021/03/14 13:56:28;;;;;;;;;;;6.70;99.90;;;;;;5100818;28;19908;-76
2021/03/14 13:58:54;;;;;;;;;;;6.60;99.90;;;;;;5111192;28;20272;-79
2021/03/14 14:01:19;;;;;;;;;;;6.40;99.90;;;;;;5109966;28;19927;-75
2021/03/14 14:03:45;;;;;;;;;;;6.30;99.90;;;;;;5109904;28;20417;-75
2021/03/14 14:06:10;;;;;;;;;;;6.20;99.90;;;;;;5109492;28;19915;-75
2021/03/14 14:08:35;;;;;;;;;;;6.10;99.90;;;;;;5111302;28;19908;-80
2021/03/14 14:11:01;;;;;;;;;;;6.00;99.90;;;;;;5110252;28;19943;-75
2021/03/14 14:13:27;;;;;;;;;;;5.70;99.90;;;;;;5114925;28;19912;-75
2021/03/14 14:16:00;;;;;;;;;;;5.50;99.90;;;;;;5114634;28;19908;-76
2021/03/14 14:18:26;;;;;;;;;;;5.40;99.90;;;;;;5113435;28;19919;-75
2021/03/14 14:20:52;;;;;;;;;;;5.20;99.90;;;;;;5114867;28;19947;-75
2021/03/14 14:23:18;;;;;;;;;;;5.00;99.90;;;;;;5114749;28;19915;-75
2021/03/14 14:25:44;;;;;;;;;;;4.90;99.90;;;;;;5096221;28;19908;-75
2021/03/14 14:28:10;;;;;;;;;;;4.80;99.90;;;;;;5094120;28;19912;-75